Time;durP1;ratioP1;P1;durP2;ratioP2;P2;SDS_P1;SDS_P2;PMS_P1;PMS_P2;Temp;Humidity;BMP_temperature;BMP_pressure;BME280_temperature;BME280_humidity;BME280_pressure;Samples;Min_cycle;Max_cycle;Signal;HPM_P1;HPM_P2
2023/04/08 00:02:29;;;;;;;15.07;13.53;;;10.00;48.70;;;;;;6263566;28;20992;-66
2023/04/08 00:05:34;;;;;;;17.43;13.90;;;10.10;48.80;;;;;;6263255;28;20479;-66
2023/04/08 00:08:37;;;;;;;16.50;14.03;;;10.10;48.60;;;;;;6264187;28;20504;-66
2023/04/08 00:11:40;;;;;;;15.43;13.83;;;10.00;48.70;;;;;;6275136;28;20469;-66
2023/04/08 00:14:43;;;;;;;20.00;17.23;;;9.90;49.70;;;;;;6282890;28;20474;-66
2023/04/08 00:17:48;;;;;;;16.57;14.77;;;9.90;50.10;;;;;;6277163;28;20484;-66
2023/04/08 00:20:51;;;;;;;17.70;15.07;;;9.80;50.10;;;;;;6287699;28;20953;-66
2023/04/08 00:23:54;;;;;;;21.10;17.43;;;9.90;50.20;;;;;;6284906;28;20553;-63
2023/04/08 00:26:57;;;;;;;17.97;15.83;;;9.90;50.30;;;;;;6274686;28;20835;-65
2023/04/08 00:30:01;;;;;;;15.87;13.67;;;9.80;49.80;;;;;;6274532;28;20470;-65
2023/04/08 00:33:05;;;;;;;18.00;15.50;;;9.70;49.80;;;;;;6279479;28;20473;-65
2023/04/08 00:36:09;;;;;;;21.43;15.30;;;9.70;49.50;;;;;;6284789;28;20473;-64
2023/04/08 00:39:12;;;;;;;18.73;15.23;;;9.70;49.60;;;;;;6276905;28;20477;-65
2023/04/08 00:42:15;;;;;;;15.67;13.97;;;9.60;49.70;;;;;;6284599;28;20469;-65
2023/04/08 00:45:18;;;;;;;20.37;16.43;;;9.60;49.80;;;;;;6285069;28;20486;-65
2023/04/08 00:48:22;;;;;;;17.00;15.20;;;9.50;50.00;;;;;;6288191;28;20499;-66
2023/04/08 00:51:26;;;;;;;17.80;15.40;;;9.50;50.20;;;;;;6286719;28;20485;-66
2023/04/08 00:54:30;;;;;;;18.53;14.33;;;9.40;50.30;;;;;;6284950;28;20481;-65
2023/04/08 00:57:33;;;;;;;18.77;14.97;;;9.50;50.70;;;;;;6285268;28;20466;-65
2023/04/08 01:00:41;;;;;;;17.43;14.43;;;9.50;50.50;;;;;;6282035;28;20481;-65
2023/04/08 01:03:57;;;;;;;15.67;14.07;;;9.50;50.70;;;;;;6283477;28;20965;-65
2023/04/08 01:07:07;;;;;;;16.30;14.60;;;9.50;50.70;;;;;;6283577;28;20458;-63
2023/04/08 01:10:15;;;;;;;15.90;14.20;;;9.50;51.00;;;;;;6285985;28;20419;-63
2023/04/08 01:13:22;;;;;;;19.30;15.47;;;9.50;51.10;;;;;;6281692;28;20824;-64
2023/04/08 01:16:26;;;;;;;19.30;14.70;;;9.50;51.20;;;;;;6281626;28;20470;-63
2023/04/08 01:19:34;;;;;;;17.80;15.70;;;9.50;51.30;;;;;;6273412;28;20473;-64
2023/04/08 01:22:46;;;;;;;16.60;14.80;;;9.50;51.40;;;;;;6281383;28;20984;-64
2023/04/08 01:25:52;;;;;;;17.50;14.30;;;9.50;51.60;;;;;;6286164;28;20486;-64
2023/04/08 01:28:59;;;;;;;18.87;15.60;;;9.50;51.60;;;;;;6284726;28;20477;-64
2023/04/08 01:32:07;;;;;;;20.70;17.70;;;9.50;51.60;;;;;;6284013;28;20465;-64
2023/04/08 01:35:11;;;;;;;19.50;16.83;;;9.50;51.70;;;;;;6285481;28;20457;-64
2023/04/08 01:38:17;;;;;;;20.93;16.70;;;9.50;51.80;;;;;;6286924;28;20477;-64
2023/04/08 01:41:22;;;;;;;17.80;16.00;;;9.40;52.00;;;;;;6279893;28;20473;-64
2023/04/08 01:44:27;;;;;;;17.60;15.70;;;9.50;52.20;;;;;;6284314;28;20948;-64
2023/04/08 01:47:31;;;;;;;19.83;16.03;;;9.50;52.10;;;;;;6286799;28;20481;-64
2023/04/08 01:50:35;;;;;;;17.83;15.87;;;9.50;52.30;;;;;;6287044;28;20479;-63
2023/04/08 01:53:38;;;;;;;18.23;15.03;;;9.40;52.40;;;;;;6286825;28;20482;-63
2023/04/08 01:56:46;;;;;;;17.83;15.93;;;9.50;52.60;;;;;;6291061;28;20477;-64
2023/04/08 01:59:52;;;;;;;19.87;16.50;;;9.50;52.80;;;;;;6291428;28;21021;-64
2023/04/08 02:02:57;;;;;;;20.93;17.90;;;9.50;52.80;;;;;;6291620;28;20470;-64
2023/04/08 02:06:00;;;;;;;20.17;16.30;;;9.50;52.90;;;;;;6290354;28;20535;-64
2023/04/08 02:09:04;;;;;;;17.23;15.33;;;9.40;53.00;;;;;;6291280;28;20472;-63
2023/04/08 02:12:09;;;;;;;18.20;16.30;;;9.40;53.20;;;;;;6290030;28;20477;-63
2023/04/08 02:15:13;;;;;;;18.40;15.83;;;9.30;53.60;;;;;;6278251;28;20484;-63
2023/04/08 02:18:22;;;;;;;16.87;15.00;;;9.30;54.00;;;;;;6278134;28;20489;-63
2023/04/08 02:21:33;;;;;;;17.00;15.30;;;9.30;54.00;;;;;;6277715;28;20486;-63
2023/04/08 02:24:37;;;;;;;16.37;14.70;;;9.30;54.00;;;;;;6273211;28;20486;-63
2023/04/08 02:27:43;;;;;;;19.80;16.33;;;9.30;54.00;;;;;;6277759;28;20961;-64
2023/04/08 02:30:49;;;;;;;21.93;16.47;;;9.40;54.00;;;;;;6277467;28;20918;-64
2023/04/08 02:33:55;;;;;;;18.33;14.80;;;9.40;54.10;;;;;;6277649;28;20804;-64
2023/04/08 02:36:59;;;;;;;18.27;16.40;;;9.40;54.20;;;;;;6277515;28;20485;-64
2023/04/08 02:40:02;;;;;;;22.70;18.00;;;9.50;54.20;;;;;;6277636;28;20442;-64
2023/04/08 02:43:06;;;;;;;16.10;14.60;;;9.40;54.20;;;;;;6277198;28;20917;-63
2023/04/08 02:46:11;;;;;;;18.77;16.97;;;9.40;54.60;;;;;;6277147;28;20462;-64
2023/04/08 02:49:14;;;;;;;17.20;15.50;;;9.40;54.40;;;;;;6277251;28;20870;-63
2023/04/08 02:52:17;;;;;;;19.10;16.43;;;9.40;54.90;;;;;;6277261;28;20775;-63
2023/04/08 02:55:20;;;;;;;23.77;16.87;;;9.30;54.80;;;;;;6276780;28;20813;-63
2023/04/08 02:58:25;;;;;;;16.93;14.90;;;9.30;55.70;;;;;;6276710;28;20480;-64
2023/04/08 03:01:28;;;;;;;19.63;16.33;;;9.40;56.10;;;;;;6276463;28;20469;-64
2023/04/08 03:04:32;;;;;;;22.97;16.87;;;9.40;56.40;;;;;;6276342;28;20505;-63
2023/04/08 03:07:35;;;;;;;18.20;15.73;;;9.40;57.10;;;;;;6277077;28;20473;-64
2023/04/08 03:10:38;;;;;;;21.13;15.00;;;9.40;57.80;;;;;;6276310;28;20474;-63
2023/04/08 03:13:42;;;;;;;19.00;16.67;;;9.30;57.70;;;;;;6276720;28;20466;-63
2023/04/08 03:16:46;;;;;;;18.90;16.87;;;9.30;58.00;;;;;;6276153;28;20960;-64
2023/04/08 03:19:49;;;;;;;19.83;17.60;;;9.40;58.20;;;;;;6276722;28;20470;-64
2023/04/08 03:22:52;;;;;;;17.10;15.50;;;9.40;58.20;;;;;;6276689;28;20959;-63
2023/04/08 03:25:55;;;;;;;15.70;14.17;;;9.40;58.60;;;;;;6276147;28;20485;-64
2023/04/08 03:29:00;;;;;;;17.80;15.53;;;9.30;58.50;;;;;;6276733;28;20466;-63
2023/04/08 03:32:03;;;;;;;18.27;16.37;;;9.30;58.50;;;;;;6276604;28;20470;-63
2023/04/08 03:35:07;;;;;;;17.40;15.73;;;9.30;58.80;;;;;;6276109;28;20478;-63
2023/04/08 03:38:10;;;;;;;17.53;15.60;;;9.30;59.00;;;;;;6276422;28;20473;-63
2023/04/08 03:41:13;;;;;;;21.20;18.03;;;9.30;59.00;;;;;;6276607;28;20474;-63
2023/04/08 03:44:18;;;;;;;17.60;15.80;;;9.30;58.90;;;;;;6275682;28;20493;-63
2023/04/08 03:47:21;;;;;;;19.13;16.77;;;9.20;59.50;;;;;;6276068;28;20489;-63
2023/04/08 03:50:24;;;;;;;18.20;15.07;;;9.30;59.60;;;;;;6275553;28;20946;-64
2023/04/08 03:53:28;;;;;;;18.10;16.27;;;9.20;60.00;;;;;;6275799;28;20825;-63
2023/04/08 03:56:31;;;;;;;17.53;15.73;;;9.20;60.10;;;;;;6275537;28;20477;-63
2023/04/08 03:59:36;;;;;;;19.53;16.80;;;9.20;60.40;;;;;;6275975;28;20470;-63
2023/04/08 04:02:39;;;;;;;16.57;14.87;;;9.20;60.60;;;;;;6275609;28;20942;-63
2023/04/08 04:05:44;;;;;;;19.20;16.67;;;9.20;61.30;;;;;;6274860;28;20564;-63
2023/04/08 04:08:47;;;;;;;18.03;16.23;;;9.10;61.90;;;;;;6275504;28;20473;-63
2023/04/08 04:11:50;;;;;;;18.70;16.37;;;9.10;62.60;;;;;;6274861;28;20972;-64
2023/04/08 04:14:55;;;;;;;19.70;17.60;;;9.10;63.70;;;;;;6275257;28;20485;-62
2023/04/08 04:17:58;;;;;;;18.60;16.53;;;9.10;64.00;;;;;;6275070;28;20469;-64
2023/04/08 04:21:04;;;;;;;17.87;16.03;;;9.10;63.20;;;;;;6275167;28;20817;-63
2023/04/08 04:24:07;;;;;;;19.27;17.37;;;9.20;63.10;;;;;;6274798;28;20482;-64
2023/04/08 04:27:11;;;;;;;18.27;16.53;;;9.20;63.40;;;;;;6275086;28;20539;-63
2023/04/08 04:30:15;;;;;;;18.20;16.40;;;9.10;64.60;;;;;;6274481;28;20474;-63
2023/04/08 04:33:18;;;;;;;20.10;17.40;;;9.10;64.00;;;;;;6265867;28;20481;-63
2023/04/08 04:36:21;;;;;;;18.43;16.40;;;9.10;64.00;;;;;;6274489;28;20489;-63
2023/04/08 04:39:24;;;;;;;20.10;17.20;;;9.10;64.30;;;;;;6275013;28;20779;-63
2023/04/08 04:42:28;;;;;;;18.67;16.13;;;9.10;65.00;;;;;;6274477;28;20482;-63
2023/04/08 04:45:32;;;;;;;20.80;16.43;;;9.10;66.20;;;;;;6274949;28;20493;-63
2023/04/08 04:48:36;;;;;;;18.37;16.47;;;9.10;67.10;;;;;;6274678;28;20474;-64
2023/04/08 04:51:39;;;;;;;19.73;17.40;;;9.00;68.20;;;;;;6274361;28;20817;-64
2023/04/08 04:54:43;;;;;;;19.23;17.23;;;9.00;69.80;;;;;;6274624;28;20474;-65
2023/04/08 04:57:46;;;;;;;20.73;18.27;;;8.90;70.40;;;;;;6275181;28;20493;-63
2023/04/08 05:00:50;;;;;;;19.80;17.70;;;8.80;72.10;;;;;;6275244;28;21003;-64
2023/04/08 05:03:53;;;;;;;20.17;17.97;;;8.70;73.40;;;;;;6274647;28;20470;-64
2023/04/08 05:06:59;;;;;;;18.53;16.60;;;8.70;75.10;;;;;;6274800;28;20777;-64
2023/04/08 05:10:03;;;;;;;23.30;18.37;;;8.70;76.70;;;;;;6274592;28;20454;-64
2023/04/08 05:13:06;;;;;;;22.30;20.10;;;8.60;78.80;;;;;;6274745;28;20446;-64
2023/04/08 05:16:11;;;;;;;23.10;18.20;;;8.50;81.90;;;;;;6274188;28;20488;-64
2023/04/08 05:19:14;;;;;;;23.47;18.97;;;8.50;85.00;;;;;;6274668;28;20442;-64
2023/04/08 05:22:17;;;;;;;23.47;19.97;;;8.50;87.40;;;;;;6274179;28;20446;-64
2023/04/08 05:25:20;;;;;;;23.00;20.67;;;8.40;90.20;;;;;;6278092;28;20914;-64
2023/04/08 05:28:23;;;;;;;23.20;20.70;;;8.10;91.90;;;;;;6279128;28;20780;-63
2023/04/08 05:31:28;;;;;;;25.00;20.47;;;8.00;93.30;;;;;;6279231;28;20470;-64
2023/04/08 05:34:32;;;;;;;22.13;19.93;;;8.00;94.70;;;;;;6274466;28;20485;-64
2023/04/08 05:37:35;;;;;;;23.13;20.70;;;7.90;95.50;;;;;;6279029;28;20478;-64
2023/04/08 05:40:38;;;;;;;25.10;21.77;;;7.90;96.20;;;;;;6278899;28;20498;-64
2023/04/08 05:43:41;;;;;;;21.40;19.00;;;8.00;96.80;;;;;;6279073;28;20481;-63
2023/04/08 05:46:46;;;;;;;24.23;21.50;;;8.00;97.20;;;;;;6279152;28;20469;-64
2023/04/08 05:49:49;;;;;;;23.60;21.00;;;7.90;97.90;;;;;;6278732;28;20473;-64
2023/04/08 05:52:53;;;;;;;22.53;20.20;;;7.90;98.20;;;;;;6279200;28;20481;-64
2023/04/08 05:55:56;;;;;;;23.13;20.67;;;7.80;98.70;;;;;;6278906;28;20488;-64
2023/04/08 05:58:59;;;;;;;26.00;21.60;;;7.60;99.40;;;;;;6279002;28;20470;-64
2023/04/08 06:02:04;;;;;;;24.73;22.00;;;7.60;99.90;;;;;;6278766;28;20462;-64
2023/04/08 06:05:08;;;;;;;25.83;23.23;;;7.70;99.90;;;;;;6278278;28;20925;-63
2023/04/08 06:08:11;;;;;;;29.00;21.97;;;7.70;99.90;;;;;;6278626;28;20484;-63
2023/04/08 06:11:14;;;;;;;23.80;21.30;;;7.60;99.90;;;;;;6278784;28;20474;-63
2023/04/08 06:14:19;;;;;;;25.50;20.53;;;7.70;99.90;;;;;;6278576;28;21091;-63
2023/04/08 06:17:23;;;;;;;24.93;22.20;;;7.70;99.90;;;;;;6278548;28;20470;-64
2023/04/08 06:20:27;;;;;;;26.43;21.30;;;7.70;99.90;;;;;;6278570;28;20458;-64
2023/04/08 06:23:30;;;;;;;26.43;22.60;;;7.80;99.90;;;;;;6278482;28;20485;-64
2023/04/08 06:26:33;;;;;;;26.57;22.97;;;7.80;99.90;;;;;;6278158;28;20837;-64
2023/04/08 06:29:36;;;;;;;23.13;20.73;;;7.90;99.90;;;;;;6278209;28;20474;-65
2023/04/08 06:32:41;;;;;;;22.17;19.87;;;7.90;99.90;;;;;;6278793;28;20470;-65
2023/04/08 06:35:44;;;;;;;24.07;20.33;;;8.00;99.90;;;;;;6277082;28;20965;-64
2023/04/08 06:38:47;;;;;;;23.53;20.00;;;8.10;99.90;;;;;;6277764;28;20591;-62
2023/04/08 06:41:51;;;;;;;21.83;19.60;;;8.10;99.90;;;;;;6277216;28;20466;-62
2023/04/08 06:44:54;;;;;;;20.83;18.63;;;8.20;99.90;;;;;;6287846;28;20492;-62
2023/04/08 06:47:58;;;;;;;20.37;18.30;;;8.20;99.90;;;;;;6290649;28;20476;-62
2023/04/08 06:51:02;;;;;;;18.20;16.40;;;8.30;99.90;;;;;;6290267;28;20477;-62
2023/04/08 06:54:05;;;;;;;21.17;18.97;;;8.30;99.90;;;;;;6285980;28;20469;-62
2023/04/08 06:57:08;;;;;;;21.80;19.30;;;8.40;99.90;;;;;;6286724;28;20480;-62
2023/04/08 07:00:12;;;;;;;18.97;17.07;;;8.40;99.90;;;;;;6287677;28;20472;-63
2023/04/08 07:03:17;;;;;;;19.70;17.03;;;8.40;99.90;;;;;;6285393;28;20462;-62
2023/04/08 07:06:20;;;;;;;19.33;17.63;;;8.50;99.90;;;;;;6284685;28;20502;-63
2023/04/08 07:09:23;;;;;;;19.10;17.17;;;8.50;99.90;;;;;;6285577;28;20471;-63
2023/04/08 07:12:26;;;;;;;18.73;16.50;;;8.40;99.90;;;;;;6276948;28;20817;-64
2023/04/08 07:15:29;;;;;;;19.80;17.07;;;8.40;99.90;;;;;;6285379;28;20474;-64
2023/04/08 07:18:34;;;;;;;17.93;16.03;;;8.30;99.90;;;;;;6289292;28;20955;-64
2023/04/08 07:21:37;;;;;;;16.83;15.13;;;8.30;99.90;;;;;;6288512;28;20466;-64
2023/04/08 07:24:41;;;;;;;15.37;13.87;;;8.40;99.90;;;;;;6277429;28;20481;-64
2023/04/08 07:27:45;;;;;;;13.93;12.53;;;8.50;99.90;;;;;;6279328;28;20465;-64
2023/04/08 07:30:48;;;;;;;14.87;13.47;;;8.50;99.90;;;;;;6282711;28;20814;-64
2023/04/08 07:33:52;;;;;;;16.53;14.93;;;8.50;99.90;;;;;;6289524;28;20466;-64
2023/04/08 07:36:55;;;;;;;13.57;12.40;;;8.50;99.90;;;;;;6286892;28;20491;-64
2023/04/08 07:39:58;;;;;;;14.57;13.20;;;8.60;99.60;;;;;;6284020;28;20474;-63
2023/04/08 07:43:01;;;;;;;13.60;12.30;;;8.60;99.50;;;;;;6280585;28;20773;-64
2023/04/08 07:46:05;;;;;;;15.23;13.83;;;8.60;99.50;;;;;;6288818;28;20485;-64
2023/04/08 07:49:10;;;;;;;15.90;14.37;;;8.60;99.50;;;;;;6290087;28;20444;-64
2023/04/08 07:52:13;;;;;;;15.13;13.80;;;8.60;99.50;;;;;;6300699;28;20893;-63
2023/04/08 07:55:16;;;;;;;15.10;13.67;;;8.60;99.40;;;;;;6301008;28;20471;-63
2023/04/08 07:58:19;;;;;;;15.77;14.27;;;8.60;99.70;;;;;;6301371;28;20481;-63
2023/04/08 08:01:23;;;;;;;15.10;13.60;;;8.60;99.90;;;;;;6301066;28;20543;-63
2023/04/08 08:04:27;;;;;;;14.80;13.30;;;8.60;99.90;;;;;;6300778;28;20488;-63
2023/04/08 08:07:31;;;;;;;13.87;12.47;;;8.60;99.80;;;;;;6301293;28;20473;-63
2023/04/08 08:10:34;;;;;;;15.30;13.90;;;8.60;99.90;;;;;;6300697;28;20457;-64
2023/04/08 08:13:37;;;;;;;13.80;12.50;;;8.50;99.90;;;;;;6276539;28;20470;-64
2023/04/08 08:16:41;;;;;;;15.07;13.50;;;8.60;99.60;;;;;;6275612;28;20485;-63
2023/04/08 08:19:45;;;;;;;13.33;12.13;;;8.50;99.90;;;;;;6268569;28;20470;-64
2023/04/08 08:22:49;;;;;;;11.53;10.53;;;8.50;99.90;;;;;;6276350;28;20485;-63
2023/04/08 08:26:00;;;;;;;12.77;11.60;;;8.50;99.90;;;;;;6276032;28;20474;-65
2023/04/08 08:29:04;;;;;;;12.00;10.87;;;8.60;99.90;;;;;;6274913;28;20474;-63
2023/04/08 08:32:07;;;;;;;11.47;10.57;;;8.60;99.60;;;;;;6275185;28;20482;-63
2023/04/08 08:35:11;;;;;;;11.60;10.47;;;8.50;99.00;;;;;;6274847;28;20910;-64
2023/04/08 08:38:16;;;;;;;12.00;10.80;;;8.50;99.00;;;;;;6274729;28;20935;-66
2023/04/08 08:41:19;;;;;;;12.33;11.10;;;8.50;99.20;;;;;;6274867;28;20818;-65
2023/04/08 08:44:22;;;;;;;12.50;11.40;;;8.60;99.20;;;;;;6274437;28;20477;-65
2023/04/08 08:47:25;;;;;;;12.20;11.10;;;8.60;99.60;;;;;;6270352;28;20497;-63
2023/04/08 08:50:30;;;;;;;25.70;23.50;;;8.70;99.60;;;;;;6275183;28;20469;-63
2023/04/08 08:53:33;;;;;;;15.33;13.80;;;8.70;99.40;;;;;;6275661;28;20988;-64
2023/04/08 08:56:38;;;;;;;13.27;11.97;;;8.80;99.40;;;;;;6281729;28;20477;-63
2023/04/08 08:59:41;;;;;;;11.43;10.43;;;8.80;99.50;;;;;;6293124;28;20465;-64
2023/04/08 09:02:44;;;;;;;12.53;11.47;;;8.90;99.40;;;;;;6299970;28;20796;-64
2023/04/08 09:05:51;;;;;;;10.23;9.20;;;8.90;99.20;;;;;;6299327;28;20944;-64
2023/04/08 09:08:54;;;;;;;11.33;10.13;;;9.00;99.70;;;;;;6299969;28;20809;-63
2023/04/08 09:12:04;;;;;;;11.07;10.13;;;9.00;99.20;;;;;;6299552;28;20987;-63
2023/04/08 09:15:08;;;;;;;11.70;10.60;;;9.00;99.20;;;;;;6299625;28;20960;-62
2023/04/08 09:18:22;;;;;;;11.07;10.17;;;9.00;99.10;;;;;;6299311;28;20540;-62
2023/04/08 09:21:27;;;;;;;11.47;10.47;;;9.10;98.90;;;;;;6291675;28;20466;-63
2023/04/08 09:24:31;;;;;;;13.03;11.70;;;9.10;98.90;;;;;;6285831;28;20473;-63
2023/04/08 09:27:35;;;;;;;11.73;10.53;;;9.10;98.70;;;;;;6280409;28;20469;-63
2023/04/08 09:30:38;;;;;;;12.23;11.13;;;9.20;98.90;;;;;;6275995;28;20957;-62
2023/04/08 09:33:41;;;;;;;12.27;11.10;;;9.20;99.10;;;;;;6283418;28;20488;-62
2023/04/08 09:36:47;;;;;;;12.13;11.13;;;9.30;99.20;;;;;;6281775;28;20462;-62
2023/04/08 09:39:50;;;;;;;11.90;10.87;;;9.40;99.10;;;;;;6281190;28;21008;-61
2023/04/08 09:42:55;;;;;;;14.23;12.93;;;9.30;99.00;;;;;;6291253;28;20469;-63
2023/04/08 09:46:00;;;;;;;11.90;10.87;;;9.20;98.80;;;;;;6279074;28;20498;-65
2023/04/08 09:49:06;;;;;;;14.20;12.97;;;9.30;99.30;;;;;;6288862;28;20518;-64
2023/04/08 09:52:14;;;;;;;10.93;9.93;;;9.40;99.20;;;;;;6270484;28;20467;-65
2023/04/08 09:55:21;;;;;;;11.03;9.93;;;9.50;98.80;;;;;;6238420;28;20464;-65
2023/04/08 09:58:28;;;;;;;11.27;10.23;;;9.60;98.60;;;;;;6225250;28;20464;-62
2023/04/08 10:01:38;;;;;;;12.53;11.43;;;9.60;98.20;;;;;;6224977;28;20929;-64
2023/04/08 10:04:49;;;;;;;12.00;10.90;;;9.50;98.40;;;;;;6229364;28;20558;-64
2023/04/08 10:07:55;;;;;;;12.70;11.50;;;9.50;98.40;;;;;;6271013;28;21000;-65
2023/04/08 10:10:59;;;;;;;12.80;11.60;;;9.50;98.70;;;;;;6273086;28;20477;-65
2023/04/08 10:14:02;;;;;;;12.67;11.50;;;9.40;98.30;;;;;;6277973;28;20980;-64
2023/04/08 10:17:26;;;;;;;12.83;11.73;;;9.40;98.40;;;;;;6254132;28;20474;-64
2023/04/08 10:20:42;;;;;;;12.50;11.50;;;9.30;98.60;;;;;;6256600;28;20815;-64
2023/04/08 10:23:59;;;;;;;13.27;12.10;;;9.20;98.80;;;;;;6229561;28;20480;-64
2023/04/08 10:27:04;;;;;;;13.20;12.10;;;9.30;99.30;;;;;;6227347;28;20472;-63
2023/04/08 10:30:39;;;;;;;13.20;12.07;;;9.40;99.20;;;;;;6227444;28;20467;-64
2023/04/08 10:33:45;;;;;;;13.77;12.43;;;9.40;98.50;;;;;;6228520;28;20468;-64
2023/04/08 10:36:48;;;;;;;13.70;12.50;;;9.40;98.70;;;;;;6228849;28;20817;-64
2023/04/08 10:39:55;;;;;;;12.03;11.13;;;9.40;99.30;;;;;;6228805;28;20507;-64
2023/04/08 10:42:59;;;;;;;15.20;13.90;;;9.40;99.10;;;;;;6228837;28;20475;-63
2023/04/08 10:46:03;;;;;;;14.40;13.10;;;9.60;99.20;;;;;;6252605;28;20927;-65
2023/04/08 10:49:07;;;;;;;13.00;11.90;;;9.70;98.20;;;;;;6271968;28;20513;-66
2023/04/08 10:52:10;;;;;;;14.90;13.50;;;9.80;98.40;;;;;;6278301;28;20453;-67
2023/04/08 10:55:15;;;;;;;13.30;12.10;;;9.90;98.40;;;;;;6268693;28;20462;-66
2023/04/08 10:58:18;;;;;;;14.30;13.00;;;10.10;97.50;;;;;;6277438;28;20486;-66
2023/04/08 11:01:21;;;;;;;13.37;12.17;;;10.20;97.80;;;;;;6277380;28;20473;-66
2023/04/08 11:04:26;;;;;;;13.80;12.40;;;10.30;97.40;;;;;;6277511;28;20545;-65
2023/04/08 11:07:30;;;;;;;11.40;10.40;;;10.50;96.90;;;;;;6277229;28;20477;-65
2023/04/08 11:10:38;;;;;;;11.90;10.80;;;10.80;96.70;;;;;;6277613;28;20469;-65
2023/04/08 11:13:43;;;;;;;12.20;11.10;;;10.90;95.30;;;;;;6276810;28;20531;-64
2023/04/08 11:16:55;;;;;;;12.43;11.30;;;10.70;94.90;;;;;;6276743;28;20501;-65
2023/04/08 11:20:01;;;;;;;12.73;11.63;;;10.70;95.40;;;;;;6279130;28;20489;-63
2023/04/08 11:23:04;;;;;;;13.83;12.50;;;10.80;95.50;;;;;;6286606;28;20469;-63
2023/04/08 11:26:10;;;;;;;12.50;11.50;;;10.70;95.10;;;;;;6291276;28;20492;-63
2023/04/08 11:29:14;;;;;;;11.90;10.90;;;10.70;95.40;;;;;;6287835;28;20579;-63
2023/04/08 11:32:17;;;;;;;14.43;13.03;;;10.80;95.00;;;;;;6301214;28;20472;-64
2023/04/08 11:35:20;;;;;;;13.60;12.40;;;10.90;95.30;;;;;;6301048;28;20485;-64
2023/04/08 11:38:24;;;;;;;14.17;12.90;;;10.90;94.70;;;;;;6300815;28;20476;-63
2023/04/08 11:41:38;;;;;;;33.17;29.60;;;11.00;94.90;;;;;;6301588;28;20469;-63
2023/04/08 11:44:41;;;;;;;16.33;14.83;;;11.20;94.80;;;;;;6300858;28;20496;-64
2023/04/08 11:47:45;;;;;;;13.63;12.53;;;11.40;94.00;;;;;;6301345;28;20960;-64
2023/04/08 11:50:50;;;;;;;13.20;12.10;;;11.50;93.00;;;;;;6301143;28;20476;-64
2023/04/08 11:53:53;;;;;;;13.60;12.50;;;11.20;92.60;;;;;;6301256;28;20539;-65
2023/04/08 11:57:01;;;;;;;13.57;12.37;;;11.10;93.20;;;;;;6300809;28;20465;-63
2023/04/08 12:00:06;;;;;;;13.97;12.77;;;11.00;93.50;;;;;;6301086;28;20481;-64
2023/04/08 12:03:09;;;;;;;14.23;13.00;;;11.00;93.80;;;;;;6300604;28;20480;-63
2023/04/08 12:06:14;;;;;;;15.37;13.83;;;10.80;94.00;;;;;;6299971;28;20853;-64
2023/04/08 12:09:17;;;;;;;16.50;14.90;;;10.80;94.10;;;;;;6300573;28;20469;-63
2023/04/08 12:12:21;;;;;;;13.60;12.50;;;10.90;94.40;;;;;;6300624;28;21010;-63
2023/04/08 12:15:24;;;;;;;14.73;13.33;;;10.80;94.20;;;;;;6300357;28;20480;-63
2023/04/08 12:18:27;;;;;;;14.03;12.73;;;10.70;94.70;;;;;;6300106;28;20965;-65
2023/04/08 12:21:33;;;;;;;12.27;10.73;;;10.60;95.20;;;;;;6288607;28;20470;-63
2023/04/08 12:24:36;;;;;;;12.90;11.83;;;10.60;95.50;;;;;;6275301;28;20478;-64
2023/04/08 12:27:42;;;;;;;12.53;11.43;;;10.60;95.50;;;;;;6275130;28;20965;-63
2023/04/08 12:30:45;;;;;;;11.50;10.50;;;10.60;95.50;;;;;;6275464;28;20482;-64
2023/04/08 12:33:48;;;;;;;11.80;10.73;;;10.60;95.50;;;;;;6274970;28;20480;-63
2023/04/08 12:36:52;;;;;;;12.13;10.90;;;10.80;95.50;;;;;;6274984;28;20484;-63
2023/04/08 12:39:55;;;;;;;13.30;12.20;;;10.80;95.40;;;;;;6275156;28;20482;-64
2023/04/08 12:42:59;;;;;;;12.07;11.03;;;10.70;95.30;;;;;;6274915;28;20827;-64
2023/04/08 12:46:03;;;;;;;12.33;11.23;;;10.60;95.00;;;;;;6274788;28;20466;-63
2023/04/08 12:49:06;;;;;;;13.07;10.20;;;10.60;95.30;;;;;;6274627;28;20549;-63
2023/04/08 12:52:09;;;;;;;12.33;11.07;;;10.50;95.50;;;;;;6274983;28;20813;-63
2023/04/08 12:55:12;;;;;;;11.60;10.50;;;10.40;95.80;;;;;;6275013;28;20463;-63
2023/04/08 12:58:17;;;;;;;11.73;10.73;;;10.30;96.00;;;;;;6274979;28;20453;-63
2023/04/08 13:01:22;;;;;;;10.90;9.97;;;10.20;95.80;;;;;;6270942;28;21090;-64
2023/04/08 13:04:25;;;;;;;9.87;9.07;;;10.20;96.00;;;;;;6274544;28;20474;-64
2023/04/08 13:07:28;;;;;;;10.73;9.73;;;10.20;96.10;;;;;;6274758;28;20806;-64
2023/04/08 13:10:31;;;;;;;11.00;10.00;;;10.20;96.60;;;;;;6274306;28;20477;-64
2023/04/08 13:13:36;;;;;;;13.50;12.30;;;10.10;96.70;;;;;;6274671;28;20473;-64
2023/04/08 13:16:39;;;;;;;15.33;13.77;;;10.10;96.80;;;;;;6275102;28;20969;-64
2023/04/08 13:19:42;;;;;;;14.77;13.47;;;10.20;97.60;;;;;;6275137;28;20497;-63
2023/04/08 13:22:45;;;;;;;17.07;15.37;;;10.20;97.90;;;;;;6274609;28;20477;-65
2023/04/08 13:25:49;;;;;;;16.80;15.17;;;10.20;98.20;;;;;;6274857;28;20485;-64
2023/04/08 13:28:53;;;;;;;17.77;16.07;;;10.00;98.30;;;;;;6274803;28;20477;-64
2023/04/08 13:32:02;;;;;;;17.30;15.70;;;9.90;99.60;;;;;;6277016;28;20466;-64
2023/04/08 13:35:06;;;;;;;16.87;15.23;;;9.80;99.90;;;;;;6284670;28;20563;-65
2023/04/08 13:38:10;;;;;;;19.00;17.00;;;9.80;99.90;;;;;;6285656;28;20485;-65
2023/04/08 13:41:13;;;;;;;17.90;16.20;;;9.50;99.90;;;;;;6283767;28;20470;-66
2023/04/08 13:44:17;;;;;;;16.87;15.20;;;9.50;99.90;;;;;;6284318;28;20484;-65
2023/04/08 13:47:20;;;;;;;16.57;15.00;;;9.50;99.90;;;;;;6289474;28;20784;-63
2023/04/08 13:50:24;;;;;;;16.67;15.07;;;9.50;99.90;;;;;;6303427;28;20472;-63
2023/04/08 13:53:27;;;;;;;15.67;14.17;;;9.40;99.90;;;;;;6303132;28;20469;-62
2023/04/08 13:56:30;;;;;;;16.60;14.83;;;9.10;99.90;;;;;;6282171;28;20482;-63
2023/04/08 13:59:35;;;;;;;17.97;16.07;;;9.00;99.90;;;;;;6278312;28;20481;-63
2023/04/08 14:02:38;;;;;;;16.17;14.57;;;9.00;99.90;;;;;;6277827;28;20477;-64
2023/04/08 14:05:41;;;;;;;16.50;14.90;;;9.10;99.90;;;;;;6277748;28;20477;-63
2023/04/08 14:08:44;;;;;;;17.53;15.70;;;9.10;99.90;;;;;;6277999;28;20488;-63
2023/04/08 14:11:47;;;;;;;15.37;13.90;;;9.10;99.90;;;;;;6278710;28;20473;-62
2023/04/08 14:14:52;;;;;;;16.13;14.50;;;9.10;99.90;;;;;;6278486;28;20466;-62
2023/04/08 14:17:55;;;;;;;15.40;13.80;;;9.10;99.90;;;;;;6278156;28;20980;-63
2023/04/08 14:20:59;;;;;;;16.10;14.50;;;8.70;99.90;;;;;;6277503;28;20500;-63
2023/04/08 14:24:02;;;;;;;15.73;14.03;;;8.70;99.90;;;;;;6277535;28;20478;-62
2023/04/08 14:27:05;;;;;;;14.37;12.97;;;8.70;99.90;;;;;;6277471;28;20481;-63
2023/04/08 14:30:10;;;;;;;15.03;13.40;;;8.80;99.90;;;;;;6285661;28;20544;-62
2023/04/08 14:33:13;;;;;;;14.40;12.90;;;8.80;99.90;;;;;;6283967;28;20527;-63
2023/04/08 14:36:17;;;;;;;13.30;12.10;;;8.90;99.90;;;;;;6280931;28;20465;-64
2023/04/08 14:39:21;;;;;;;14.60;13.13;;;8.90;99.90;;;;;;6301747;28;20473;-63
2023/04/08 14:42:24;;;;;;;14.63;13.23;;;8.70;99.90;;;;;;6302395;28;20465;-65
2023/04/08 14:45:28;;;;;;;16.63;14.90;;;8.70;99.90;;;;;;6302559;28;20476;-64
2023/04/08 14:48:31;;;;;;;15.80;14.20;;;8.80;99.90;;;;;;6302768;28;20473;-64
2023/04/08 14:51:36;;;;;;;16.67;14.43;;;8.70;99.90;;;;;;6302588;28;20480;-64
2023/04/08 14:54:40;;;;;;;17.00;15.20;;;8.60;99.90;;;;;;6296702;28;20474;-64
2023/04/08 14:57:43;;;;;;;18.60;16.60;;;8.50;99.90;;;;;;6276603;28;20477;-64
2023/04/08 15:00:47;;;;;;;18.70;16.67;;;8.50;99.90;;;;;;6282540;28;20473;-64
2023/04/08 15:03:50;;;;;;;21.20;19.10;;;8.50;99.90;;;;;;6301323;28;20472;-64
2023/04/08 15:06:53;;;;;;;23.77;20.93;;;8.50;99.90;;;;;;6301140;28;20522;-64
2023/04/08 15:09:57;;;;;;;24.27;21.03;;;8.30;99.90;;;;;;6301265;28;20469;-64
2023/04/08 15:13:00;;;;;;;23.83;21.23;;;8.40;99.90;;;;;;6292233;28;20530;-65
2023/04/08 15:16:05;;;;;;;24.23;20.47;;;8.50;99.90;;;;;;6301508;28;20473;-63
2023/04/08 15:19:08;;;;;;;23.60;20.60;;;8.50;99.90;;;;;;6301229;28;20460;-64
2023/04/08 15:22:11;;;;;;;22.93;20.53;;;8.50;99.90;;;;;;6284498;28;20543;-64
2023/04/08 15:25:14;;;;;;;22.57;19.20;;;8.50;99.90;;;;;;6276214;28;20755;-63
2023/04/08 15:28:17;;;;;;;24.37;21.80;;;8.60;99.90;;;;;;6276203;28;20460;-63
2023/04/08 15:31:22;;;;;;;23.47;20.40;;;8.70;99.90;;;;;;6276604;28;20441;-63
2023/04/08 15:34:25;;;;;;;22.17;19.80;;;8.70;99.90;;;;;;6276137;28;20466;-63
2023/04/08 15:37:29;;;;;;;20.97;18.07;;;8.70;99.90;;;;;;6276005;28;20480;-63
2023/04/08 15:40:33;;;;;;;21.20;18.97;;;8.60;99.90;;;;;;6276198;28;20478;-63
2023/04/08 15:43:36;;;;;;;21.20;18.77;;;8.60;99.90;;;;;;6275461;28;20466;-63
2023/04/08 15:46:41;;;;;;;21.20;18.87;;;8.60;99.90;;;;;;6276423;28;20466;-63